Time;durP1;ratioP1;P1;durP2;ratioP2;P2;SDS_P1;SDS_P2;PMS_P1;PMS_P2;Temp;Humidity;BMP_temperature;BMP_pressure;BME280_temperature;BME280_humidity;BME280_pressure;Samples;Min_cycle;Max_cycle;Signal;HPM_P1;HPM_P2
2022/10/19 00:00:42;;;;;;;0.93;0.93;;;15.00;98.20;14.30;96937.00;;;;5114886;28;20224;-53
2022/10/19 00:03:08;;;;;;;1.53;1.43;;;15.00;98.60;14.30;96933.00;;;;5097111;28;20613;-54
2022/10/19 00:05:34;;;;;;;0.87;0.87;;;15.00;98.70;14.30;96930.00;;;;5115075;28;20200;-54
2022/10/19 00:08:01;;;;;;;2.70;1.87;;;15.00;98.60;14.30;96923.00;;;;5114830;28;20741;-52
2022/10/19 00:10:28;;;;;;;1.00;1.00;;;15.00;98.30;14.20;96923.00;;;;5114726;28;20285;-52
2022/10/19 00:12:54;;;;;;;1.00;1.00;;;14.90;97.90;14.10;96924.00;;;;5114912;28;20254;-52
2022/10/19 00:15:21;;;;;;;0.60;0.60;;;14.80;98.20;14.20;96921.00;;;;5114788;28;20198;-52
2022/10/19 00:17:48;;;;;;;0.70;0.70;;;14.80;98.60;14.20;96907.00;;;;5114686;28;20655;-52
2022/10/19 00:20:15;;;;;;;0.97;0.97;;;14.80;98.40;14.20;96917.00;;;;5114867;28;20299;-52
2022/10/19 00:22:41;;;;;;;1.40;1.30;;;14.90;98.70;14.30;96924.00;;;;5114519;28;20730;-54
2022/10/19 00:25:09;;;;;;;0.90;0.90;;;14.90;98.50;14.10;96918.00;;;;5114705;28;20702;-52
2022/10/19 00:27:36;;;;;;;1.00;1.00;;;14.80;98.00;14.10;96916.00;;;;5114668;28;20201;-53
2022/10/19 00:30:06;;;;;;;1.30;1.20;;;14.80;98.30;14.10;96921.00;;;;5114585;28;20585;-54
2022/10/19 00:32:33;;;;;;;1.07;1.07;;;14.80;98.50;14.00;96920.00;;;;5115313;28;20190;-54
2022/10/19 00:35:02;;;;;;;1.63;1.53;;;14.70;99.20;14.00;96918.00;;;;5114337;28;20222;-53
2022/10/19 00:37:29;;;;;;;1.43;1.33;;;14.70;98.70;13.90;96910.00;;;;5114591;28;20288;-53
2022/10/19 00:39:55;;;;;;;0.90;0.90;;;14.60;98.60;13.90;96910.00;;;;5114462;28;20281;-53
2022/10/19 00:42:22;;;;;;;1.23;1.23;;;14.60;98.80;13.90;96916.00;;;;5114213;28;20233;-52
2022/10/19 00:45:10;;;;;;;1.13;1.13;;;14.60;99.00;13.80;96902.00;;;;5114365;28;20542;-52
2022/10/19 00:47:37;;;;;;;1.10;1.10;;;14.60;99.50;13.80;96909.00;;;;5114243;28;20242;-52
2022/10/19 00:50:08;;;;;;;1.60;1.47;;;14.50;99.90;13.80;96911.00;;;;5114253;28;20263;-52
2022/10/19 00:52:35;;;;;;;1.47;1.37;;;14.50;99.90;13.80;96909.00;;;;5114089;28;20197;-54
2022/10/19 00:55:02;;;;;;;1.13;1.13;;;14.60;99.90;13.80;96907.00;;;;5114024;28;20202;-52
2022/10/19 00:57:31;;;;;;;0.80;0.80;;;14.50;99.90;13.70;96907.00;;;;5114289;28;20204;-53
2022/10/19 01:00:01;;;;;;;1.13;1.13;;;14.40;99.90;13.60;96912.00;;;;5114186;28;20286;-52
2022/10/19 01:02:30;;;;;;;1.27;1.17;;;14.40;99.90;13.50;96903.00;;;;5114060;28;20652;-52
2022/10/19 01:05:00;;;;;;;0.90;0.90;;;14.30;99.90;13.40;96894.00;;;;5095993;28;20225;-53
2022/10/19 01:07:27;;;;;;;1.03;1.03;;;14.20;99.60;13.30;96906.00;;;;5114161;28;20280;-53
2022/10/19 01:09:57;;;;;;;1.57;1.47;;;14.10;99.50;13.30;96902.00;;;;5114034;28;20633;-52
2022/10/19 01:13:13;;;;;;;0.90;0.90;;;14.00;99.60;13.30;96899.00;;;;5113919;28;20198;-53
2022/10/19 01:15:52;;;;;;;1.27;1.17;;;14.00;99.90;13.30;96897.00;;;;5095945;28;20201;-53
2022/10/19 01:18:26;;;;;;;1.63;1.53;;;14.00;99.90;13.30;96891.00;;;;5095953;28;20641;-53
2022/10/19 01:21:18;;;;;;;1.10;1.10;;;14.00;99.90;13.20;96896.00;;;;5113792;28;20202;-54
2022/10/19 01:24:24;;;;;;;0.97;0.97;;;13.90;99.60;13.10;96886.00;;;;5113845;28;20608;-53
2022/10/19 01:27:32;;;;;;;0.90;0.90;;;13.80;99.90;13.00;96898.00;;;;5112727;28;20197;-54
2022/10/19 01:30:18;;;;;;;1.00;1.00;;;13.70;99.90;12.90;96884.00;;;;5113662;28;20206;-53
2022/10/19 01:33:13;;;;;;;0.90;0.90;;;13.70;99.90;12.90;96888.00;;;;5111459;28;20236;-54
2022/10/19 01:35:47;;;;;;;2.90;1.07;;;13.70;99.90;13.00;96885.00;;;;5113796;28;20198;-53
2022/10/19 01:38:27;;;;;;;0.97;0.97;;;13.70;99.90;13.00;96887.00;;;;5113622;28;20629;-52
2022/10/19 01:41:09;;;;;;;1.80;1.37;;;13.70;99.90;13.10;96886.00;;;;5113557;28;20280;-53
2022/10/19 01:43:44;;;;;;;0.70;0.70;;;13.70;99.90;13.10;96879.00;;;;5113538;28;20305;-52
2022/10/19 01:46:21;;;;;;;1.30;1.30;;;13.60;99.80;13.00;96878.00;;;;5113463;28;20632;-53
2022/10/19 01:48:55;;;;;;;1.27;1.27;;;13.70;99.90;13.00;96860.00;;;;5113418;28;20236;-54
2022/10/19 01:51:29;;;;;;;1.10;1.10;;;13.80;99.70;13.00;96874.00;;;;5095440;28;20212;-52
2022/10/19 01:54:03;;;;;;;1.67;1.57;;;13.80;99.90;13.00;96880.00;;;;5113502;28;20197;-53
2022/10/19 01:56:33;;;;;;;0.97;0.97;;;13.70;99.60;13.00;96867.00;;;;5113437;28;20355;-53
2022/10/19 01:59:05;;;;;;;0.73;0.73;;;13.70;99.20;13.00;96866.00;;;;5113312;28;20194;-53
2022/10/19 02:01:37;;;;;;;1.00;1.00;;;13.70;98.70;13.00;96860.00;;;;5113151;28;20221;-55
2022/10/19 02:04:05;;;;;;;1.53;1.53;;;13.60;98.60;13.00;96853.00;;;;5113464;28;20286;-54
2022/10/19 02:06:35;;;;;;;1.47;1.37;;;13.70;98.40;13.00;96860.00;;;;5114882;28;20236;-53
2022/10/19 02:09:01;;;;;;;3.03;1.40;;;13.70;98.40;13.00;96861.00;;;;5116845;28;20248;-52
2022/10/19 02:11:30;;;;;;;2.57;2.20;;;13.70;98.10;13.10;96854.00;;;;5098754;28;20581;-52
2022/10/19 02:14:03;;;;;;;0.97;0.97;;;13.70;98.30;13.10;96851.00;;;;5116736;28;20745;-52
2022/10/19 02:16:38;;;;;;;1.00;1.00;;;13.70;98.40;13.00;96863.00;;;;5098991;28;20593;-53
2022/10/19 02:19:08;;;;;;;2.00;1.77;;;13.70;99.10;13.00;96856.00;;;;5121031;28;20361;-54
2022/10/19 02:21:34;;;;;;;1.33;1.33;;;13.70;99.30;13.00;96861.00;;;;5098927;28;20233;-55
2022/10/19 02:24:01;;;;;;;2.03;1.93;;;13.70;99.60;13.00;96861.00;;;;5116774;28;20366;-56
2022/10/19 02:26:28;;;;;;;1.60;1.50;;;13.70;99.80;13.00;96859.00;;;;5116661;28;20205;-58
2022/10/19 02:28:55;;;;;;;1.27;1.27;;;13.70;99.80;12.90;96860.00;;;;5116446;28;20316;-54
2022/10/19 02:31:23;;;;;;;1.43;1.40;;;13.70;99.60;12.70;96855.00;;;;5116626;28;20296;-54
2022/10/19 02:33:50;;;;;;;1.27;1.23;;;13.50;99.30;12.70;96867.00;;;;5116373;28;20712;-53
2022/10/19 02:36:18;;;;;;;1.63;1.57;;;13.40;99.90;12.50;96862.00;;;;5116510;28;20226;-55
2022/10/19 02:38:44;;;;;;;1.90;1.80;;;13.30;99.70;12.50;96867.00;;;;5116339;28;20242;-53
2022/10/19 02:41:18;;;;;;;1.50;1.40;;;13.20;99.90;12.50;96869.00;;;;5116261;28;20245;-54
2022/10/19 02:43:53;;;;;;;1.20;1.20;;;13.20;99.90;12.40;96862.00;;;;5116268;28;20197;-54
2022/10/19 02:46:27;;;;;;;1.03;1.03;;;;;12.50;96850.00;;;;5116278;28;20296;-52
2022/10/19 02:48:57;;;;;;;2.57;1.93;;;13.20;99.90;12.50;96858.00;;;;5116155;28;20220;-52
2022/10/19 02:51:28;;;;;;;3.27;1.83;;;13.20;99.90;12.50;96857.00;;;;5116070;28;20233;-53
2022/10/19 02:53:55;;;;;;;1.90;1.23;;;13.20;99.90;12.50;96852.00;;;;5116077;28;20641;-53
2022/10/19 02:56:22;;;;;;;1.60;1.50;;;13.20;99.90;12.60;96853.00;;;;5116072;28;20190;-53
2022/10/19 02:58:48;;;;;;;1.80;1.70;;;13.30;99.90;12.60;96850.00;;;;5116022;28;20280;-54
2022/10/19 03:01:15;;;;;;;3.10;1.67;;;13.30;99.90;12.60;96852.00;;;;5115912;28;20285;-53
2022/10/19 03:03:44;;;;;;;1.27;1.27;;;13.30;99.90;12.60;96847.00;;;;5115849;28;20230;-53
2022/10/19 03:06:11;;;;;;;1.53;1.43;;;13.30;99.90;12.60;96838.00;;;;5115797;28;20209;-53
2022/10/19 03:08:37;;;;;;;1.73;1.63;;;13.40;99.90;12.70;96837.00;;;;5115774;28;20297;-53
2022/10/19 03:11:04;;;;;;;1.87;1.77;;;13.40;99.90;12.80;96842.00;;;;5115769;28;20651;-54
2022/10/19 03:13:31;;;;;;;3.80;1.40;;;13.50;99.90;12.80;96846.00;;;;5115871;28;20198;-55
2022/10/19 03:15:57;;;;;;;1.77;1.67;;;13.40;99.90;12.70;96845.00;;;;5097797;28;20293;-52
2022/10/19 03:18:23;;;;;;;4.33;1.43;;;13.40;99.90;12.70;96838.00;;;;5114374;28;20521;-52
2022/10/19 03:20:50;;;;;;;1.67;1.57;;;13.40;99.90;12.60;96847.00;;;;5097544;28;20241;-52
2022/10/19 03:23:17;;;;;;;1.80;1.20;;;13.30;99.90;12.60;96843.00;;;;5097525;28;20278;-52
2022/10/19 03:25:43;;;;;;;1.13;1.13;;;13.30;99.90;12.60;96836.00;;;;5115480;28;20232;-53
2022/10/19 03:28:10;;;;;;;0.93;0.93;;;13.40;99.90;12.70;96839.00;;;;5115725;28;20205;-52
2022/10/19 03:30:36;;;;;;;1.70;1.60;;;13.30;99.90;12.80;96825.00;;;;5115370;28;20711;-52
2022/10/19 03:33:02;;;;;;;0.87;0.87;;;13.40;99.90;12.70;96832.00;;;;5115471;28;20201;-54
2022/10/19 03:35:29;;;;;;;1.60;1.50;;;13.50;99.90;12.70;96828.00;;;;5115505;28;20212;-53
2022/10/19 03:37:55;;;;;;;2.00;1.90;;;13.40;99.90;12.80;96825.00;;;;5115404;28;20199;-53
2022/10/19 03:40:22;;;;;;;0.80;0.80;;;13.50;99.90;12.70;96823.00;;;;5097365;28;20214;-53
2022/10/19 03:42:49;;;;;;;1.47;1.37;;;13.40;99.90;12.80;96831.00;;;;5097089;28;20229;-53
2022/10/19 03:45:15;;;;;;;0.90;0.90;;;13.40;99.90;12.90;96823.00;;;;5115242;28;20233;-53
2022/10/19 03:47:41;;;;;;;3.80;1.40;;;13.50;99.90;12.90;96831.00;;;;5115185;28;20240;-53
2022/10/19 03:50:11;;;;;;;1.20;1.20;;;13.50;99.90;12.90;96823.00;;;;5115176;28;20220;-53
2022/10/19 03:52:38;;;;;;;1.77;1.67;;;13.60;99.90;13.00;96828.00;;;;5115069;28;20213;-52
2022/10/19 03:55:06;;;;;;;1.67;1.57;;;13.60;99.90;13.00;96825.00;;;;5115035;28;20254;-54
2022/10/19 03:57:33;;;;;;;1.57;1.47;;;13.70;99.90;13.00;96825.00;;;;5115187;28;20194;-56
2022/10/19 03:59:59;;;;;;;1.00;1.00;;;13.70;99.90;13.00;96821.00;;;;5115137;28;20204;-57
2022/10/19 04:02:26;;;;;;;0.90;0.90;;;13.70;99.90;13.10;96819.00;;;;5096933;28;20225;-52
2022/10/19 04:04:52;;;;;;;1.10;1.10;;;13.70;99.90;13.10;96825.00;;;;5114846;28;20737;-54
2022/10/19 04:07:18;;;;;;;1.00;1.00;;;13.70;99.90;13.10;96823.00;;;;5114810;28;20262;-53
2022/10/19 04:09:45;;;;;;;1.17;1.17;;;13.80;99.90;13.10;96811.00;;;;5114772;28;20194;-53
2022/10/19 04:12:11;;;;;;;0.93;0.93;;;13.80;99.90;13.10;96813.00;;;;5114790;28;20204;-53
2022/10/19 04:14:38;;;;;;;1.13;1.13;;;13.80;99.90;13.10;96821.00;;;;5096739;28;20220;-53
2022/10/19 04:17:05;;;;;;;1.17;1.17;;;13.80;99.90;13.10;96823.00;;;;5114737;28;20262;-54
2022/10/19 04:19:31;;;;;;;0.63;0.63;;;13.70;99.90;13.00;96812.00;;;;5114721;28;20212;-53
2022/10/19 04:22:00;;;;;;;6.20;1.27;;;13.70;99.90;13.00;96821.00;;;;5114569;28;20225;-53
2022/10/19 04:24:29;;;;;;;0.80;0.80;;;13.70;99.90;12.90;96830.00;;;;5114859;28;20201;-54
2022/10/19 04:26:57;;;;;;;1.57;1.47;;;13.60;99.90;12.90;96822.00;;;;5114425;28;20217;-52
2022/10/19 04:29:25;;;;;;;1.60;1.50;;;13.60;99.90;12.90;96826.00;;;;5114185;28;20652;-53
2022/10/19 04:31:52;;;;;;;3.53;1.93;;;13.60;99.90;13.00;96830.00;;;;5114536;28;20295;-53
2022/10/19 04:34:21;;;;;;;3.23;1.70;;;13.60;99.90;13.00;96830.00;;;;5114497;28;20239;-53
2022/10/19 04:36:48;;;;;;;1.00;1.00;;;13.60;99.90;13.10;96822.00;;;;5114467;28;20255;-55
2022/10/19 04:39:14;;;;;;;1.33;1.33;;;13.70;99.90;13.10;96818.00;;;;5114478;28;20656;-55
2022/10/19 04:41:40;;;;;;;1.07;1.07;;;13.80;99.90;13.10;96824.00;;;;5114259;28;20214;-58
2022/10/19 04:44:07;;;;;;;0.70;0.70;;;13.70;99.90;13.10;96797.00;;;;5114352;28;20224;-52
2022/10/19 04:46:34;;;;;;;0.77;0.77;;;13.70;99.90;13.10;96815.00;;;;5114313;28;20307;-53
2022/10/19 04:49:03;;;;;;;2.17;1.00;;;13.70;99.90;13.10;96822.00;;;;5114203;28;20274;-53
2022/10/19 04:51:29;;;;;;;0.90;0.90;;;13.80;99.90;13.20;96811.00;;;;5114259;28;20194;-54
2022/10/19 04:53:57;;;;;;;1.60;1.50;;;13.90;99.90;13.20;96817.00;;;;5114264;28;20263;-55
2022/10/19 04:56:25;;;;;;;1.73;1.60;;;13.90;99.90;13.20;96808.00;;;;5096047;28;20202;-53
2022/10/19 04:58:56;;;;;;;0.70;0.70;;;13.90;99.90;13.20;96799.00;;;;5114051;28;20721;-53
2022/10/19 05:01:25;;;;;;;1.10;1.10;;;13.90;99.90;13.20;96816.00;;;;5113037;28;20235;-53
2022/10/19 05:03:55;;;;;;;2.87;1.63;;;13.90;99.90;13.20;96812.00;;;;5114028;28;20245;-54
2022/10/19 05:06:23;;;;;;;0.93;0.93;;;13.90;99.90;13.20;96816.00;;;;5096148;28;20617;-55
2022/10/19 05:08:51;;;;;;;2.80;1.97;;;13.90;99.90;13.20;96811.00;;;;5095976;28;20225;-53
2022/10/19 05:11:18;;;;;;;4.47;2.60;;;13.90;99.90;13.30;96821.00;;;;5113886;28;20266;-55
2022/10/19 05:13:46;;;;;;;2.20;2.07;;;13.90;99.90;13.30;96814.00;;;;5113995;28;20217;-54
2022/10/19 05:16:15;;;;;;;1.90;1.80;;;14.00;99.90;13.30;96813.00;;;;5113920;28;20258;-55
2022/10/19 05:18:41;;;;;;;1.87;1.70;;;14.00;99.90;13.30;96808.00;;;;5095987;28;20309;-54
2022/10/19 05:21:11;;;;;;;1.40;1.33;;;14.00;99.90;13.30;96812.00;;;;5095970;28;20198;-55
2022/10/19 05:23:40;;;;;;;1.67;1.57;;;14.00;99.90;13.20;96808.00;;;;5113720;28;20224;-53
2022/10/19 05:26:10;;;;;;;3.20;2.10;;;13.90;99.90;13.20;96800.00;;;;5113923;28;20331;-53
2022/10/19 05:28:37;;;;;;;1.40;1.30;;;13.90;99.90;13.10;96805.00;;;;5113681;28;20241;-53
2022/10/19 05:31:10;;;;;;;1.93;1.83;;;13.80;99.90;13.10;96801.00;;;;5095880;28;20209;-54
2022/10/19 05:33:37;;;;;;;2.57;2.43;;;13.80;99.90;13.10;96799.00;;;;5113605;28;20217;-53
2022/10/19 05:36:16;;;;;;;1.17;1.17;;;13.70;99.90;13.10;96788.00;;;;5113624;28;20288;-53
2022/10/19 05:38:45;;;;;;;1.70;1.60;;;13.80;99.90;13.10;96782.00;;;;5113604;28;20673;-53
2022/10/19 05:41:12;;;;;;;1.73;1.63;;;13.80;99.90;13.20;96785.00;;;;5114769;28;20193;-54
2022/10/19 05:43:40;;;;;;;1.60;1.60;;;13.80;99.90;13.20;96781.00;;;;5117104;28;20222;-52
2022/10/19 05:46:09;;;;;;;6.03;2.63;;;13.90;99.90;13.10;96783.00;;;;5117209;28;20314;-53
2022/10/19 05:48:38;;;;;;;1.90;1.80;;;13.80;99.90;13.00;96784.00;;;;5117148;28;20685;-52
2022/10/19 05:51:06;;;;;;;1.30;1.30;;;13.70;99.90;13.10;96788.00;;;;5117092;28;20232;-52
2022/10/19 05:53:34;;;;;;;1.30;1.30;;;13.70;99.90;13.10;96792.00;;;;5117078;28;20616;-52
2022/10/19 05:56:05;;;;;;;1.60;1.57;;;13.80;99.90;13.20;96798.00;;;;5117107;28;20308;-52
2022/10/19 05:58:33;;;;;;;2.23;2.07;;;13.80;99.90;13.20;96799.00;;;;5116936;28;20190;-58
2022/10/19 06:01:01;;;;;;;4.47;2.87;;;13.90;99.90;13.20;96775.00;;;;5116950;28;20225;-54
2022/10/19 06:03:28;;;;;;;2.03;1.93;;;13.90;99.90;13.20;96797.00;;;;5117004;28;20204;-55
2022/10/19 06:05:56;;;;;;;2.73;2.53;;;13.80;99.90;13.20;96796.00;;;;5116854;28;20656;-53
2022/10/19 06:08:25;;;;;;;1.37;1.37;;;13.90;99.90;13.20;96798.00;;;;5116946;28;20213;-53
2022/10/19 06:10:51;;;;;;;1.93;1.67;;;13.80;99.90;13.20;96798.00;;;;5116743;28;20202;-53
2022/10/19 06:13:19;;;;;;;1.83;1.73;;;13.90;99.90;13.20;96801.00;;;;5116774;28;20309;-54
2022/10/19 06:15:51;;;;;;;3.33;1.30;;;13.80;99.90;13.30;96804.00;;;;5116928;28;20194;-54
2022/10/19 06:18:17;;;;;;;1.00;1.00;;;13.90;99.90;13.30;96799.00;;;;5116574;28;20218;-56
2022/10/19 06:20:44;;;;;;;2.77;2.57;;;13.90;99.90;13.30;96803.00;;;;5116915;28;20204;-52
2022/10/19 06:23:11;;;;;;;1.30;1.20;;;14.00;99.90;13.30;96795.00;;;;5116535;28;20304;-54
2022/10/19 06:25:41;;;;;;;1.60;1.53;;;13.90;99.90;13.30;96800.00;;;;5116505;28;20289;-52
2022/10/19 06:28:10;;;;;;;2.33;2.23;;;14.00;99.90;13.30;96802.00;;;;5116607;28;20213;-52
2022/10/19 06:30:39;;;;;;;1.13;1.13;;;14.00;99.90;13.40;96809.00;;;;5116419;28;20218;-54
2022/10/19 06:33:06;;;;;;;2.73;1.83;;;14.00;99.90;13.40;96807.00;;;;5116418;28;20268;-52
2022/10/19 06:35:33;;;;;;;2.00;1.67;;;14.00;99.90;13.40;96806.00;;;;5116250;28;20225;-52
2022/10/19 06:37:59;;;;;;;1.57;1.47;;;14.00;99.90;13.40;96806.00;;;;5116445;28;20669;-53
2022/10/19 06:40:26;;;;;;;2.60;1.97;;;14.00;99.90;13.50;96815.00;;;;5116384;28;20243;-52
2022/10/19 06:42:54;;;;;;;5.10;2.93;;;14.10;99.90;13.50;96821.00;;;;5116180;28;20228;-52
2022/10/19 06:45:21;;;;;;;1.63;1.57;;;14.10;99.90;13.40;96819.00;;;;5116306;28;20210;-53
2022/10/19 06:47:48;;;;;;;2.03;1.93;;;14.20;99.90;13.60;96822.00;;;;5116089;28;20221;-52
2022/10/19 06:50:14;;;;;;;1.60;1.50;;;14.30;99.90;13.60;96818.00;;;;5116111;28;20198;-52
2022/10/19 06:52:41;;;;;;;2.50;1.70;;;14.30;99.90;13.70;96818.00;;;;5097977;28;20526;-54
2022/10/19 06:55:08;;;;;;;1.50;1.43;;;14.30;99.90;13.70;96820.00;;;;5098264;28;20602;-54
2022/10/19 06:57:35;;;;;;;1.23;1.23;;;14.30;99.90;13.70;96815.00;;;;5116015;28;20189;-52
2022/10/19 07:00:02;;;;;;;4.10;2.13;;;14.40;99.90;13.70;96823.00;;;;5116041;28;20190;-52
2022/10/19 07:02:28;;;;;;;2.20;1.80;;;14.40;99.90;13.70;96814.00;;;;5115912;28;20748;-52
2022/10/19 07:04:58;;;;;;;1.33;1.30;;;14.40;99.90;13.70;96823.00;;;;5116037;28;20217;-54
2022/10/19 07:07:24;;;;;;;0.70;0.70;;;14.40;99.90;13.80;96822.00;;;;5114981;28;20222;-54
2022/10/19 07:09:53;;;;;;;0.90;0.90;;;14.40;99.90;13.80;96815.00;;;;5115806;28;20335;-52
2022/10/19 07:12:20;;;;;;;1.23;1.23;;;14.50;99.90;14.00;96818.00;;;;5115960;28;20210;-52
2022/10/19 07:14:46;;;;;;;1.17;1.17;;;14.50;99.90;14.00;96816.00;;;;5097826;28;20512;-52
2022/10/19 07:17:13;;;;;;;1.10;1.10;;;14.60;99.90;14.00;96815.00;;;;5115812;28;20247;-53
2022/10/19 07:19:39;;;;;;;2.07;1.97;;;14.60;99.90;14.10;96788.00;;;;5115020;28;20528;-56
2022/10/19 07:22:06;;;;;;;1.33;1.33;;;14.70;99.90;14.10;96824.00;;;;5115730;28;20230;-54
2022/10/19 07:24:33;;;;;;;1.03;1.03;;;14.70;99.90;14.10;96824.00;;;;5115534;28;20652;-52
2022/10/19 07:26:59;;;;;;;2.03;1.93;;;14.70;99.90;14.10;96823.00;;;;5115435;28;20302;-53
2022/10/19 07:29:26;;;;;;;1.13;1.13;;;14.70;99.90;14.10;96819.00;;;;5115539;28;20291;-56
2022/10/19 07:31:52;;;;;;;1.00;1.00;;;14.70;99.90;14.00;96818.00;;;;5115530;28;20506;-54
2022/10/19 07:34:19;;;;;;;1.23;1.00;;;14.70;99.90;14.00;96816.00;;;;5115345;28;20306;-52
2022/10/19 07:36:47;;;;;;;5.07;1.60;;;14.70;99.90;14.00;96816.00;;;;5115345;28;20198;-52
2022/10/19 07:39:16;;;;;;;1.40;1.33;;;14.70;99.90;14.10;96807.00;;;;5097340;28;20244;-53
2022/10/19 07:41:42;;;;;;;3.23;2.10;;;14.70;99.90;14.10;96824.00;;;;5115271;28;20262;-53
2022/10/19 07:44:09;;;;;;;1.37;1.30;;;14.80;99.90;14.20;96829.00;;;;5115358;28;20309;-58
2022/10/19 07:46:36;;;;;;;1.10;1.10;;;14.80;99.90;14.20;96822.00;;;;5097233;28;20281;-53
2022/10/19 07:49:08;;;;;;;2.23;2.03;;;14.80;99.90;14.30;96811.00;;;;5115254;28;20213;-53
2022/10/19 07:51:39;;;;;;;1.73;1.63;;;14.90;99.90;14.30;96803.00;;;;5115217;28;20218;-54
2022/10/19 07:54:05;;;;;;;2.43;2.23;;;14.90;99.90;14.30;96799.00;;;;5115336;28;20208;-53
2022/10/19 07:56:32;;;;;;;3.50;1.73;;;14.90;99.90;14.40;96810.00;;;;5115053;28;20231;-54
2022/10/19 07:59:04;;;;;;;1.47;1.43;;;15.00;99.90;14.50;96812.00;;;;5115103;28;20574;-53
2022/10/19 08:01:33;;;;;;;1.80;1.40;;;15.00;99.90;14.60;96811.00;;;;5115000;28;20532;-55
2022/10/19 08:04:00;;;;;;;1.83;1.73;;;15.20;99.90;14.70;96803.00;;;;5114396;28;20648;-54
2022/10/19 08:06:30;;;;;;;1.97;1.87;;;15.30;99.90;14.70;96818.00;;;;5115007;28;20198;-52
2022/10/19 08:08:57;;;;;;;1.63;1.53;;;15.30;99.90;14.80;96817.00;;;;5114768;28;20221;-53
2022/10/19 08:11:28;;;;;;;3.03;2.83;;;15.40;99.90;14.70;96828.00;;;;5114844;28;20579;-53
2022/10/19 08:13:58;;;;;;;2.53;2.03;;;15.30;99.90;14.70;96785.00;;;;5114811;28;20675;-52
2022/10/19 08:16:27;;;;;;;3.53;1.90;;;15.30;99.90;14.80;96832.00;;;;5114816;28;20563;-52
2022/10/19 08:18:58;;;;;;;2.47;2.27;;;15.40;99.90;14.70;96824.00;;;;5114721;28;20194;-52
2022/10/19 08:21:25;;;;;;;1.77;1.67;;;15.30;99.90;14.70;96818.00;;;;5114791;28;20517;-53
2022/10/19 08:23:51;;;;;;;1.73;1.63;;;15.30;99.90;14.70;96816.00;;;;5114738;28;20327;-52
2022/10/19 08:26:18;;;;;;;2.10;1.80;;;15.30;99.90;14.70;96804.00;;;;5114682;28;20253;-52
2022/10/19 08:28:45;;;;;;;2.13;2.03;;;15.30;99.90;14.80;96821.00;;;;5114647;28;20217;-54
2022/10/19 08:31:15;;;;;;;1.73;1.63;;;15.30;99.90;14.80;96827.00;;;;5114466;28;20208;-52
2022/10/19 08:33:42;;;;;;;2.50;2.30;;;15.40;99.90;14.80;96795.00;;;;5114549;28;20258;-52
2022/10/19 08:36:10;;;;;;;1.80;1.70;;;15.40;99.90;14.70;96811.00;;;;5114380;28;20284;-52
2022/10/19 08:38:39;;;;;;;1.40;1.30;;;15.40;99.90;14.80;96817.00;;;;5114462;28;20228;-52
2022/10/19 08:41:20;;;;;;;0.90;0.90;;;15.40;99.90;14.80;96808.00;;;;5114673;28;20186;-54
2022/10/19 08:44:09;;;;;;;1.40;1.27;;;15.30;99.70;14.80;96819.00;;;;5114415;28;20198;-53
2022/10/19 08:46:45;;;;;;;1.67;1.40;;;15.40;99.50;14.90;96812.00;;;;5113273;28;20221;-53
2022/10/19 08:49:19;;;;;;;1.63;1.53;;;15.40;99.50;14.90;96807.00;;;;5114337;28;20197;-51
2022/10/19 08:51:53;;;;;;;3.07;2.07;;;15.40;98.70;14.90;96812.00;;;;5114112;28;20201;-52
2022/10/19 08:54:20;;;;;;;2.07;1.97;;;15.50;98.90;15.00;96804.00;;;;5114244;28;20174;-53
2022/10/19 08:56:58;;;;;;;0.90;0.90;;;15.50;98.40;14.90;96786.00;;;;5114139;28;20210;-54
2022/10/19 08:59:39;;;;;;;1.47;1.43;;;15.50;97.80;14.90;96795.00;;;;5114301;28;20317;-52
2022/10/19 09:02:18;;;;;;;0.80;0.80;;;15.50;98.30;15.00;96795.00;;;;5114059;28;20552;-53
2022/10/19 09:04:54;;;;;;;1.80;1.70;;;15.60;97.90;15.10;96798.00;;;;5114003;28;20253;-55
2022/10/19 09:07:25;;;;;;;1.93;1.83;;;;;15.20;96789.00;;;;5114079;28;20197;-53
2022/10/19 09:09:57;;;;;;;2.57;2.40;;;15.70;97.10;15.20;96792.00;;;;5113919;28;20196;-53
2022/10/19 09:12:40;;;;;;;4.73;2.10;;;15.80;96.70;15.20;96786.00;;;;5113815;28;20528;-53
2022/10/19 09:15:12;;;;;;;1.07;1.07;;;15.80;96.80;15.20;96787.00;;;;5113879;28;20284;-53
2022/10/19 09:17:39;;;;;;;1.83;1.73;;;15.80;96.30;15.30;96784.00;;;;5113775;28;20221;-53
2022/10/19 09:20:19;;;;;;;2.67;2.27;;;15.80;96.50;15.20;96797.00;;;;5113935;28;20284;-52
2022/10/19 09:22:53;;;;;;;2.00;1.23;;;15.80;96.10;15.00;96789.00;;;;5113786;28;20218;-53
2022/10/19 09:25:25;;;;;;;1.60;1.50;;;15.70;96.80;15.00;96789.00;;;;5113964;28;20221;-53
2022/10/19 09:28:05;;;;;;;2.20;2.03;;;15.70;96.90;15.00;96789.00;;;;5113689;28;20200;-53
2022/10/19 09:30:39;;;;;;;2.00;1.80;;;15.70;97.30;15.00;96791.00;;;;5113701;28;20214;-52
2022/10/19 09:33:17;;;;;;;1.93;1.83;;;15.60;97.00;14.90;96792.00;;;;5113728;28;20187;-53
2022/10/19 09:35:46;;;;;;;3.20;3.00;;;15.50;97.30;14.90;96784.00;;;;5113692;28;20208;-53
2022/10/19 09:38:15;;;;;;;2.07;1.80;;;15.50;97.90;15.00;96792.00;;;;5095621;28;20197;-53
2022/10/19 09:40:43;;;;;;;1.97;1.87;;;15.60;97.70;15.00;96793.00;;;;5113714;28;20210;-53
2022/10/19 09:43:19;;;;;;;3.27;2.97;;;15.70;97.50;15.00;96791.00;;;;5113448;28;20233;-51
2022/10/19 09:45:53;;;;;;;1.43;1.33;;;15.60;97.20;14.80;96796.00;;;;5113495;28;20197;-54
2022/10/19 09:48:30;;;;;;;1.97;1.83;;;15.50;97.80;14.90;96794.00;;;;5113531;28;20257;-53
2022/10/19 09:51:02;;;;;;;2.43;2.23;;;15.50;98.30;14.90;96791.00;;;;5113527;28;20204;-54
2022/10/19 09:53:30;;;;;;;17.00;1.63;;;15.50;98.20;14.90;96789.00;;;;5113428;28;20189;-54
2022/10/19 09:56:03;;;;;;;1.70;1.60;;;15.50;97.60;14.90;96778.00;;;;5095559;28;20553;-54
2022/10/19 09:58:30;;;;;;;2.27;2.07;;;15.50;97.90;14.80;96775.00;;;;5113550;28;20688;-53
2022/10/19 10:01:00;;;;;;;2.87;2.63;;;15.40;98.50;14.80;96783.00;;;;5113337;28;20202;-53
2022/10/19 10:03:31;;;;;;;2.50;2.27;;;15.50;98.50;14.80;96772.00;;;;5113120;28;20222;-53
2022/10/19 10:06:05;;;;;;;1.70;1.60;;;15.40;98.40;14.80;96781.00;;;;5113320;28;20205;-53
2022/10/19 10:08:37;;;;;;;2.13;2.03;;;15.40;98.20;14.90;96786.00;;;;5113201;28;20220;-53
2022/10/19 10:11:10;;;;;;;5.30;2.30;;;15.40;98.30;15.00;96789.00;;;;5113269;28;20190;-54
2022/10/19 10:13:40;;;;;;;1.57;1.47;;;15.60;97.60;15.00;96787.00;;;;5113126;28;20268;-55
2022/10/19 10:16:10;;;;;;;1.57;1.57;;;15.50;97.70;15.10;96771.00;;;;5112314;28;20237;-53
2022/10/19 10:18:53;;;;;;;1.47;1.47;;;15.70;97.80;15.00;96788.00;;;;5113000;28;20217;-53
2022/10/19 10:21:25;;;;;;;2.00;1.83;;;15.60;97.20;15.00;96784.00;;;;5113087;28;20332;-53
2022/10/19 10:24:01;;;;;;;2.07;1.93;;;15.60;97.30;15.10;96787.00;;;;5113076;28;20276;-53
2022/10/19 10:26:28;;;;;;;1.13;1.13;;;15.70;97.30;15.00;96786.00;;;;5113143;28;20232;-53
2022/10/19 10:28:54;;;;;;;2.50;2.37;;;15.60;96.80;15.00;96780.00;;;;5116683;28;20220;-57
2022/10/19 10:31:25;;;;;;;4.10;3.63;;;15.70;96.70;15.00;96772.00;;;;5098714;28;20253;-53
2022/10/19 10:34:00;;;;;;;1.97;1.87;;;15.60;97.10;14.80;96776.00;;;;5116306;28;20213;-53
2022/10/19 10:36:29;;;;;;;2.07;1.97;;;15.60;96.60;14.80;96753.00;;;;5116568;28;20649;-53
2022/10/19 10:39:05;;;;;;;1.07;1.07;;;15.50;96.60;14.70;96770.00;;;;5116289;28;20195;-52
2022/10/19 10:41:38;;;;;;;1.03;1.03;;;15.40;96.90;14.60;96774.00;;;;5098300;28;20625;-53
2022/10/19 10:44:15;;;;;;;2.47;2.27;;;15.30;97.50;14.70;96764.00;;;;5116395;28;20206;-52
2022/10/19 10:46:52;;;;;;;0.97;0.97;;;15.30;97.80;14.60;96756.00;;;;5116042;28;20233;-51
2022/10/19 10:49:25;;;;;;;2.40;2.20;;;15.30;98.00;14.70;96756.00;;;;5116259;28;20217;-50
2022/10/19 10:51:56;;;;;;;3.37;1.53;;;15.30;97.70;14.80;96758.00;;;;5116229;28;20190;-54
2022/10/19 10:54:25;;;;;;;1.10;1.10;;;15.40;97.30;14.80;96754.00;;;;5116232;28;20201;-52
2022/10/19 10:57:04;;;;;;;0.80;0.80;;;15.40;96.90;14.90;96755.00;;;;5098335;28;20610;-54
2022/10/19 10:59:39;;;;;;;1.57;1.47;;;15.50;97.10;14.90;96739.00;;;;5116133;28;20232;-53
2022/10/19 11:02:25;;;;;;;2.40;2.20;;;15.50;97.50;14.90;96755.00;;;;5115930;28;20209;-53
2022/10/19 11:05:02;;;;;;;1.60;1.50;;;15.50;96.60;14.90;96758.00;;;;5116022;28;20178;-53
2022/10/19 11:07:33;;;;;;;2.00;1.90;;;15.50;96.00;15.00;96754.00;;;;5098013;28;20221;-54